Time;durP1;ratioP1;P1;durP2;ratioP2;P2;SDS_P1;SDS_P2;PMS_P1;PMS_P2;Temp;Humidity;BMP_temperature;BMP_pressure;BME280_temperature;BME280_humidity;BME280_pressure;Samples;Min_cycle;Max_cycle;Signal;HPM_P1;HPM_P2
2023/06/09 00:01:37;;;;;;;3.30;2.40;;;14.00;99.90;;;;;;4999318;28;20042;-64
2023/06/09 00:04:04;;;;;;;0.00;0.00;;;14.00;99.90;;;;;;5009298;28;20073;-64
2023/06/09 00:06:30;;;;;;;1.27;0.90;;;14.00;99.90;;;;;;5028336;28;20045;-64
2023/06/09 00:08:59;;;;;;;1.02;0.40;;;13.90;99.90;;;;;;5009113;28;20053;-64
2023/06/09 00:11:26;;;;;;;0.10;0.10;;;14.00;99.90;;;;;;5003287;28;20038;-64
2023/06/09 00:13:52;;;;;;;0.00;0.00;;;13.90;99.90;;;;;;5012639;28;20489;-64
2023/06/09 00:16:18;;;;;;;0.13;0.13;;;13.90;99.90;;;;;;5009945;28;20390;-64
2023/06/09 00:18:45;;;;;;;0.00;0.00;;;13.90;99.90;;;;;;5003574;28;20036;-64
2023/06/09 00:21:17;;;;;;;0.03;0.03;;;13.90;99.90;;;;;;5007664;28;20548;-64
2023/06/09 00:23:44;;;;;;;0.32;0.32;;;13.90;99.90;;;;;;5002568;28;20050;-64
2023/06/09 00:26:10;;;;;;;0.00;0.00;;;13.90;99.90;;;;;;5007855;28;20051;-64
2023/06/09 00:28:36;;;;;;;0.35;0.35;;;14.00;99.90;;;;;;5004443;28;20050;-64
2023/06/09 00:31:02;;;;;;;0.40;0.40;;;13.90;99.90;;;;;;5003728;28;20109;-64
2023/06/09 00:33:27;;;;;;;0.05;0.05;;;13.90;99.90;;;;;;5012358;28;20133;-64
2023/06/09 00:35:53;;;;;;;0.10;0.10;;;13.90;99.90;;;;;;5007944;28;20120;-64
2023/06/09 00:38:18;;;;;;;0.75;0.75;;;13.90;99.90;;;;;;5000606;28;20061;-64
2023/06/09 00:40:44;;;;;;;0.10;0.10;;;13.90;99.90;;;;;;5011916;28;20438;-63
2023/06/09 00:43:09;;;;;;;0.00;0.00;;;13.90;99.90;;;;;;5004533;28;20041;-64
2023/06/09 00:45:35;;;;;;;0.20;0.20;;;13.80;99.90;;;;;;5008070;28;20084;-64
2023/06/09 00:48:01;;;;;;;1.42;0.70;;;13.80;99.90;;;;;;5012242;28;20132;-64
2023/06/09 00:50:27;;;;;;;0.10;0.10;;;13.80;99.90;;;;;;5002588;28;20073;-64
2023/06/09 00:52:55;;;;;;;0.00;0.00;;;13.80;99.90;;;;;;5009427;28;20036;-64
2023/06/09 00:55:22;;;;;;;0.25;0.25;;;13.80;99.90;;;;;;5026990;28;20125;-64
2023/06/09 00:57:48;;;;;;;0.20;0.20;;;13.80;99.90;;;;;;4999644;28;20046;-64
2023/06/09 01:00:16;;;;;;;0.70;0.70;;;13.80;99.90;;;;;;5005239;28;20509;-64
2023/06/09 01:02:42;;;;;;;0.32;0.32;;;13.80;99.90;;;;;;5012024;28;20050;-64
2023/06/09 01:05:09;;;;;;;2.72;0.38;;;13.70;99.90;;;;;;5009072;28;20727;-64
2023/06/09 01:07:57;;;;;;;0.95;0.93;;;13.70;99.90;;;;;;5002824;28;20093;-64
2023/06/09 01:10:43;;;;;;;0.15;0.15;;;13.70;99.90;;;;;;5011487;28;20405;-64
2023/06/09 01:13:30;;;;;;;0.40;0.40;;;13.80;99.90;;;;;;5011107;28;20456;-64
2023/06/09 01:16:03;;;;;;;0.10;0.10;;;13.70;99.90;;;;;;5002904;28;20544;-63
2023/06/09 01:18:30;;;;;;;;;;;13.70;99.90;;;;;;5011551;28;20057;-64
2023/06/09 01:21:12;;;;;;;0.40;0.40;;;13.80;99.90;;;;;;5011285;28;19927;-64
2023/06/09 01:24:17;;;;;;;0.38;0.38;;;13.70;99.90;;;;;;5002687;28;20100;-64
2023/06/09 01:26:43;;;;;;;0.30;0.30;;;13.70;99.90;;;;;;5006455;28;20181;-64
2023/06/09 01:29:13;;;;;;;1.48;0.70;;;13.70;99.90;;;;;;5003843;28;20137;-64
2023/06/09 01:31:40;;;;;;;0.25;0.25;;;13.80;99.90;;;;;;5011981;28;20056;-64
2023/06/09 01:34:06;;;;;;;0.32;0.32;;;13.70;99.90;;;;;;5002795;28;20387;-64
2023/06/09 01:36:34;;;;;;;0.68;0.68;;;13.80;99.90;;;;;;5009059;28;20073;-64
2023/06/09 01:39:00;;;;;;;0.80;0.80;;;13.80;99.90;;;;;;5011893;28;20112;-64
2023/06/09 01:41:25;;;;;;;5.95;1.77;;;13.90;99.90;;;;;;5003309;28;20040;-63
2023/06/09 01:43:51;;;;;;;0.20;0.20;;;13.90;99.90;;;;;;5005824;28;20046;-64
2023/06/09 01:46:16;;;;;;;0.80;0.73;;;13.80;99.90;;;;;;5011847;28;20042;-63
2023/06/09 01:48:54;;;;;;;0.00;0.00;;;13.90;99.90;;;;;;5006551;28;20045;-64
2023/06/09 01:51:56;;;;;;;0.43;0.43;;;13.90;99.90;;;;;;4997918;28;20073;-64
2023/06/09 01:54:34;;;;;;;0.57;0.57;;;13.90;99.90;;;;;;5001634;28;20057;-64
2023/06/09 01:57:10;;;;;;;3.00;1.65;;;13.90;99.90;;;;;;5003857;28;20110;-64
2023/06/09 01:59:44;;;;;;;0.38;0.32;;;13.90;99.90;;;;;;4998653;28;20486;-64
2023/06/09 02:02:11;;;;;;;0.75;0.60;;;13.90;99.90;;;;;;5007462;28;20477;-64
2023/06/09 02:04:38;;;;;;;2.40;0.98;;;13.80;99.90;;;;;;5005429;28;20041;-64
2023/06/09 02:07:05;;;;;;;2.17;0.47;;;13.80;99.90;;;;;;4994029;28;20061;-64
2023/06/09 02:09:32;;;;;;;0.05;0.05;;;13.80;99.90;;;;;;5014595;28;20042;-64
2023/06/09 02:11:59;;;;;;;0.00;0.00;;;13.80;99.90;;;;;;5015004;28;20048;-64
2023/06/09 02:14:34;;;;;;;0.88;0.43;;;13.70;99.90;;;;;;5005889;28;20042;-64
2023/06/09 02:17:04;;;;;;;0.25;0.25;;;13.80;99.90;;;;;;5010573;28;20037;-64
2023/06/09 02:19:30;;;;;;;0.15;0.15;;;13.80;99.90;;;;;;5006543;28;20050;-64
2023/06/09 02:21:57;;;;;;;0.32;0.32;;;13.80;99.90;;;;;;5001775;28;20046;-63
2023/06/09 02:24:27;;;;;;;0.08;0.08;;;13.70;99.90;;;;;;5014185;28;20037;-64
2023/06/09 02:26:57;;;;;;;0.10;0.10;;;13.60;99.90;;;;;;5014950;28;20042;-64
2023/06/09 02:29:26;;;;;;;0.15;0.15;;;13.60;99.90;;;;;;5009007;28;20054;-64
2023/06/09 02:31:55;;;;;;;0.00;0.00;;;13.60;99.90;;;;;;5010883;28;20108;-64
2023/06/09 02:34:25;;;;;;;0.05;0.05;;;13.60;99.90;;;;;;5000150;28;20053;-64
2023/06/09 02:36:52;;;;;;;0.20;0.20;;;13.60;99.90;;;;;;5007791;28;20045;-64
2023/06/09 02:39:20;;;;;;;0.10;0.10;;;13.50;99.90;;;;;;5004423;28;20045;-64
2023/06/09 02:41:45;;;;;;;0.10;0.10;;;13.60;99.90;;;;;;5014650;28;20066;-64
2023/06/09 02:44:11;;;;;;;1.42;0.98;;;13.50;99.90;;;;;;5013668;28;20127;-64
2023/06/09 02:46:38;;;;;;;0.00;0.00;;;13.60;99.90;;;;;;5011173;28;20553;-64
2023/06/09 02:49:04;;;;;;;0.10;0.10;;;13.60;99.90;;;;;;5006008;28;20060;-63
2023/06/09 02:51:30;;;;;;;1.98;0.38;;;13.50;99.90;;;;;;5012245;28;20049;-64
2023/06/09 02:53:55;;;;;;;3.72;1.65;;;13.50;99.90;;;;;;5011153;28;20042;-64
2023/06/09 02:56:22;;;;;;;0.08;0.08;;;13.50;99.90;;;;;;5014349;28;20042;-64
2023/06/09 02:58:48;;;;;;;5.22;1.48;;;13.50;99.90;;;;;;5009735;28;20445;-64
2023/06/09 03:01:17;;;;;;;2.95;1.08;;;13.50;99.90;;;;;;5010937;28;20053;-64
2023/06/09 03:03:43;;;;;;;0.10;0.10;;;13.50;99.90;;;;;;5014273;28;20061;-64
2023/06/09 03:06:09;;;;;;;0.40;0.40;;;13.50;99.90;;;;;;5010548;28;20046;-64
2023/06/09 03:08:34;;;;;;;0.08;0.08;;;13.50;99.90;;;;;;5026295;28;20144;-64
2023/06/09 03:11:00;;;;;;;1.30;0.85;;;13.50;99.90;;;;;;5014109;28;20046;-64
2023/06/09 03:13:25;;;;;;;0.10;0.10;;;13.50;99.90;;;;;;5008571;28;20449;-64
2023/06/09 03:15:51;;;;;;;9.65;1.05;;;13.50;99.90;;;;;;5013580;28;20070;-64
2023/06/09 03:18:17;;;;;;;0.20;0.20;;;13.50;99.90;;;;;;5009207;28;20486;-64
2023/06/09 03:20:43;;;;;;;0.10;0.10;;;13.50;99.90;;;;;;5010086;28;20042;-64
2023/06/09 03:23:09;;;;;;;0.13;0.13;;;13.60;99.90;;;;;;5013670;28;20104;-64
2023/06/09 03:25:35;;;;;;;1.25;0.85;;;13.60;99.90;;;;;;5008480;28;20038;-64
2023/06/09 03:28:01;;;;;;;2.28;1.58;;;13.50;99.90;;;;;;5012156;28;20458;-64
2023/06/09 03:30:26;;;;;;;0.10;0.10;;;13.50;99.90;;;;;;5008919;28;20124;-64
2023/06/09 03:32:52;;;;;;;0.98;0.52;;;13.60;99.90;;;;;;5003023;28;20045;-64
2023/06/09 03:35:18;;;;;;;0.70;0.70;;;13.60;99.90;;;;;;5013361;28;20482;-64
2023/06/09 03:37:43;;;;;;;0.55;0.55;;;13.60;99.90;;;;;;5010515;28;20045;-64
2023/06/09 03:40:10;;;;;;;0.20;0.20;;;13.60;99.90;;;;;;5010886;28;20049;-64
2023/06/09 03:42:36;;;;;;;0.22;0.22;;;13.60;99.90;;;;;;5013530;28;20386;-64
2023/06/09 03:45:01;;;;;;;0.93;0.57;;;13.70;99.90;;;;;;5010780;28;20052;-64
2023/06/09 03:47:27;;;;;;;0.47;0.47;;;13.60;99.90;;;;;;5009427;28;20064;-64
2023/06/09 03:49:53;;;;;;;0.55;0.55;;;13.60;99.90;;;;;;5013360;28;20044;-64
2023/06/09 03:52:21;;;;;;;0.20;0.20;;;13.60;99.90;;;;;;5003591;28;20560;-64
2023/06/09 03:54:47;;;;;;;0.45;0.38;;;13.60;99.90;;;;;;5009472;28;20034;-64
2023/06/09 03:57:13;;;;;;;0.05;0.05;;;13.60;99.90;;;;;;5018249;28;20112;-64
2023/06/09 03:59:38;;;;;;;0.00;0.00;;;13.60;99.90;;;;;;4997155;28;20118;-64
2023/06/09 04:02:04;;;;;;;0.30;0.30;;;13.60;99.90;;;;;;5010266;28;20042;-64
2023/06/09 04:04:30;;;;;;;0.10;0.10;;;13.70;99.90;;;;;;5008547;28;20125;-64
2023/06/09 04:06:56;;;;;;;0.20;0.20;;;13.80;99.90;;;;;;5004537;28;20046;-64
2023/06/09 04:09:22;;;;;;;2.03;0.30;;;13.80;99.90;;;;;;5011897;28;20057;-64
2023/06/09 04:11:47;;;;;;;0.15;0.15;;;13.70;99.90;;;;;;5006671;28;20048;-64
2023/06/09 04:14:13;;;;;;;0.57;0.35;;;13.80;99.90;;;;;;5005513;28;20041;-64
2023/06/09 04:16:38;;;;;;;0.60;0.60;;;13.80;99.90;;;;;;5011953;28;20041;-64
2023/06/09 04:19:04;;;;;;;0.63;0.63;;;13.90;99.90;;;;;;5013053;28;20121;-64
2023/06/09 04:21:30;;;;;;;0.10;0.10;;;13.90;99.90;;;;;;5001662;28;20035;-64
2023/06/09 04:23:56;;;;;;;0.38;0.38;;;13.90;99.90;;;;;;5005320;28;20100;-64
2023/06/09 04:26:21;;;;;;;3.30;1.55;;;13.90;99.90;;;;;;5008571;28;20367;-64
2023/06/09 04:28:47;;;;;;;2.90;2.38;;;13.90;99.90;;;;;;5011857;28;20127;-64
2023/06/09 04:31:13;;;;;;;0.75;0.55;;;14.00;99.90;;;;;;5009803;28;20072;-64
2023/06/09 04:33:39;;;;;;;0.10;0.10;;;14.00;99.90;;;;;;5011290;28;20076;-64
2023/06/09 04:36:05;;;;;;;0.10;0.10;;;14.00;99.90;;;;;;5011805;28;20505;-64
2023/06/09 04:38:35;;;;;;;0.43;0.43;;;14.00;99.90;;;;;;5011690;28;20053;-64
2023/06/09 04:41:03;;;;;;;0.10;0.10;;;14.00;99.90;;;;;;5003975;28;20501;-64
2023/06/09 04:43:32;;;;;;;0.28;0.28;;;14.00;99.90;;;;;;5025534;28;20129;-64
2023/06/09 04:45:59;;;;;;;0.05;0.05;;;14.10;99.90;;;;;;5008218;28;20073;-64
2023/06/09 04:48:29;;;;;;;0.10;0.10;;;14.10;99.90;;;;;;5006455;28;20046;-64
2023/06/09 04:50:56;;;;;;;0.40;0.40;;;14.20;99.90;;;;;;5011759;28;20061;-64
2023/06/09 04:53:22;;;;;;;0.10;0.10;;;14.20;99.90;;;;;;5007179;28;20046;-64
2023/06/09 04:55:48;;;;;;;1.10;0.77;;;14.20;99.90;;;;;;5005928;28;20034;-64
2023/06/09 04:58:15;;;;;;;0.50;0.45;;;14.10;99.90;;;;;;5003909;28;20053;-64
2023/06/09 05:00:41;;;;;;;0.00;0.00;;;14.30;99.90;;;;;;5012427;28;20034;-64
2023/06/09 05:03:06;;;;;;;0.40;0.40;;;14.30;99.90;;;;;;4999011;28;20097;-64
2023/06/09 05:05:32;;;;;;;0.32;0.32;;;14.30;99.90;;;;;;5005215;28;20033;-64
2023/06/09 05:07:58;;;;;;;3.20;1.35;;;14.30;99.90;;;;;;5007811;28;20049;-64
2023/06/09 05:10:23;;;;;;;0.10;0.10;;;14.30;99.90;;;;;;4998816;28;20397;-64
2023/06/09 05:12:49;;;;;;;0.20;0.20;;;14.30;99.90;;;;;;5011372;28;20068;-64
2023/06/09 05:15:16;;;;;;;0.00;0.00;;;14.40;99.90;;;;;;5010486;28;20045;-64
2023/06/09 05:17:42;;;;;;;0.20;0.15;;;14.50;99.90;;;;;;4996732;28;20054;-64
2023/06/09 05:20:09;;;;;;;0.15;0.13;;;14.50;99.90;;;;;;5007942;28;20034;-64
2023/06/09 05:22:36;;;;;;;0.00;0.00;;;14.50;99.90;;;;;;5011874;28;20050;-64
2023/06/09 05:25:02;;;;;;;0.20;0.20;;;14.70;99.90;;;;;;5018956;28;20054;-64
2023/06/09 05:27:28;;;;;;;0.25;0.25;;;14.60;99.90;;;;;;5004946;28;20497;-64
2023/06/09 05:29:54;;;;;;;0.00;0.00;;;14.70;99.90;;;;;;5007962;28;20053;-64
2023/06/09 05:32:19;;;;;;;0.20;0.20;;;14.70;99.90;;;;;;5007889;28;20045;-64
2023/06/09 05:34:45;;;;;;;0.00;0.00;;;14.80;99.90;;;;;;5010721;28;20137;-64
2023/06/09 05:37:13;;;;;;;0.00;0.00;;;14.80;99.90;;;;;;5003549;28;20074;-64
2023/06/09 05:39:42;;;;;;;0.20;0.15;;;14.80;99.90;;;;;;5009926;28;20520;-64
2023/06/09 05:42:08;;;;;;;0.10;0.10;;;14.90;99.90;;;;;;5012609;28;20030;-64
2023/06/09 05:44:34;;;;;;;0.20;0.20;;;15.00;99.90;;;;;;5011162;28;20045;-64
2023/06/09 05:46:59;;;;;;;0.08;0.08;;;14.90;99.90;;;;;;5006395;28;20034;-64
2023/06/09 05:49:25;;;;;;;0.63;0.63;;;15.00;99.90;;;;;;5008247;28;20046;-64
2023/06/09 05:51:51;;;;;;;0.10;0.10;;;15.10;99.90;;;;;;5007477;28;20376;-64
2023/06/09 05:54:18;;;;;;;0.80;0.80;;;15.10;99.90;;;;;;5007748;28;20121;-64
2023/06/09 05:56:44;;;;;;;1.75;0.82;;;15.20;99.90;;;;;;5008116;28;20436;-64
2023/06/09 05:59:11;;;;;;;0.00;0.00;;;15.10;99.90;;;;;;5009119;28;20072;-64
2023/06/09 06:01:37;;;;;;;0.00;0.00;;;15.20;99.90;;;;;;5002063;28;20034;-64
2023/06/09 06:04:02;;;;;;;0.00;0.00;;;15.20;99.90;;;;;;5015133;28;20133;-64
2023/06/09 06:06:29;;;;;;;0.00;0.00;;;15.30;99.90;;;;;;5000894;28;20042;-64
2023/06/09 06:08:55;;;;;;;0.10;0.10;;;15.30;99.90;;;;;;5010898;28;20476;-64
2023/06/09 06:11:21;;;;;;;0.80;0.60;;;15.40;99.90;;;;;;5007444;28;20038;-64
2023/06/09 06:13:46;;;;;;;1.08;0.50;;;15.40;99.90;;;;;;5008957;28;20034;-64
2023/06/09 06:16:12;;;;;;;0.10;0.10;;;15.50;99.90;;;;;;5003828;28;20047;-64
2023/06/09 06:18:38;;;;;;;0.15;0.15;;;15.50;99.90;;;;;;5015391;28;20088;-64
2023/06/09 06:21:04;;;;;;;0.00;0.00;;;15.50;99.90;;;;;;5013690;28;20106;-64
2023/06/09 06:23:29;;;;;;;0.25;0.25;;;15.60;99.90;;;;;;5012355;28;20054;-64
2023/06/09 06:25:55;;;;;;;0.85;0.30;;;15.70;99.90;;;;;;5002034;28;20466;-64
2023/06/09 06:28:21;;;;;;;0.10;0.10;;;15.70;99.90;;;;;;5011029;28;20073;-64
2023/06/09 06:30:46;;;;;;;0.10;0.10;;;15.80;99.90;;;;;;5014896;28;20049;-64
2023/06/09 06:33:12;;;;;;;1.23;0.50;;;15.80;99.90;;;;;;5009397;28;20576;-64
2023/06/09 06:35:37;;;;;;;0.10;0.10;;;15.90;99.90;;;;;;4996743;28;20056;-64
2023/06/09 06:38:03;;;;;;;0.03;0.03;;;15.90;99.90;;;;;;5014600;28;20042;-64
2023/06/09 06:40:29;;;;;;;0.10;0.10;;;15.90;99.90;;;;;;5030033;28;20050;-64
2023/06/09 06:42:54;;;;;;;0.20;0.20;;;16.10;99.90;;;;;;5004208;28;20037;-64
2023/06/09 06:45:20;;;;;;;0.00;0.00;;;16.10;99.90;;;;;;5009777;28;20046;-64
2023/06/09 06:47:46;;;;;;;0.43;0.43;;;16.20;99.90;;;;;;5014524;28;20049;-64
2023/06/09 06:50:12;;;;;;;0.52;0.52;;;16.30;99.90;;;;;;5005388;28;20077;-64
2023/06/09 06:52:38;;;;;;;0.47;0.47;;;16.30;99.90;;;;;;5002769;28;20045;-64
2023/06/09 06:55:07;;;;;;;2.17;1.27;;;16.40;99.90;;;;;;5010823;28;20125;-64
2023/06/09 06:57:36;;;;;;;0.63;0.50;;;16.40;99.90;;;;;;4999831;28;20038;-64
2023/06/09 07:00:08;;;;;;;0.10;0.10;;;16.50;99.90;;;;;;5008323;28;20042;-64
2023/06/09 07:02:35;;;;;;;0.20;0.20;;;16.60;99.90;;;;;;5006490;28;20048;-64
2023/06/09 07:05:01;;;;;;;0.10;0.10;;;16.70;99.90;;;;;;5008766;28;20053;-64
2023/06/09 07:07:26;;;;;;;0.30;0.30;;;16.80;99.90;;;;;;4999293;28;20042;-64
2023/06/09 07:09:52;;;;;;;0.88;0.68;;;16.90;99.90;;;;;;5014347;28;20522;-64
2023/06/09 07:12:18;;;;;;;0.00;0.00;;;16.90;99.90;;;;;;5022493;28;20143;-64
2023/06/09 07:14:43;;;;;;;0.00;0.00;;;17.00;99.90;;;;;;5007936;28;20371;-64
2023/06/09 07:17:09;;;;;;;0.85;0.50;;;17.00;99.90;;;;;;5009445;28;20046;-64
2023/06/09 07:19:35;;;;;;;2.28;0.68;;;17.10;99.90;;;;;;4998627;28;20096;-64
2023/06/09 07:22:01;;;;;;;0.57;0.57;;;17.10;99.90;;;;;;5009044;28;20128;-64
2023/06/09 07:24:26;;;;;;;0.05;0.05;;;17.20;99.90;;;;;;5012192;28;20045;-64
2023/06/09 07:26:53;;;;;;;0.35;0.17;;;17.20;99.90;;;;;;5013164;28;20038;-64
2023/06/09 07:29:19;;;;;;;0.20;0.20;;;17.30;99.90;;;;;;5008784;28;20058;-65
2023/06/09 07:31:44;;;;;;;0.43;0.43;;;17.40;99.90;;;;;;5004008;28;20575;-64
2023/06/09 07:34:10;;;;;;;0.22;0.22;;;17.40;99.90;;;;;;5009733;28;20042;-65
2023/06/09 07:36:37;;;;;;;0.85;0.75;;;17.50;99.90;;;;;;4996560;28;20108;-65
2023/06/09 07:39:04;;;;;;;0.08;0.08;;;17.60;99.90;;;;;;5012573;28;20081;-64
2023/06/09 07:41:30;;;;;;;0.43;0.43;;;17.60;99.90;;;;;;5007090;28;20517;-65
2023/06/09 07:43:56;;;;;;;0.13;0.13;;;17.70;99.90;;;;;;5012995;28;20498;-65
2023/06/09 07:46:23;;;;;;;0.38;0.38;;;17.80;99.90;;;;;;5002783;28;20050;-65
2023/06/09 07:48:49;;;;;;;0.47;0.47;;;17.90;99.90;;;;;;5004292;28;20108;-65
2023/06/09 07:51:16;;;;;;;0.05;0.05;;;17.90;99.90;;;;;;5007200;28;20410;-64
2023/06/09 07:53:46;;;;;;;0.35;0.35;;;18.00;99.90;;;;;;5007599;28;20377;-65
2023/06/09 07:56:11;;;;;;;0.45;0.45;;;18.00;99.90;;;;;;5010335;28;20144;-65
2023/06/09 07:58:37;;;;;;;0.03;0.03;;;18.10;99.90;;;;;;5008831;28;20541;-65
2023/06/09 08:01:03;;;;;;;0.30;0.30;;;18.10;99.90;;;;;;4996540;28;20505;-65
2023/06/09 08:03:29;;;;;;;0.52;0.50;;;18.30;99.90;;;;;;5012879;28;20482;-65
2023/06/09 08:05:55;;;;;;;0.43;0.43;;;18.40;99.90;;;;;;5012435;28;20040;-65
2023/06/09 08:08:21;;;;;;;4.05;1.48;;;18.50;99.90;;;;;;5004308;28;20520;-64
2023/06/09 08:10:46;;;;;;;0.32;0.30;;;18.50;99.90;;;;;;4999966;28;20037;-65
2023/06/09 08:13:15;;;;;;;0.32;0.32;;;18.50;99.90;;;;;;5009445;28;20046;-65
2023/06/09 08:15:41;;;;;;;0.20;0.20;;;18.60;99.90;;;;;;5009932;28;20100;-65
2023/06/09 08:18:06;;;;;;;0.22;0.22;;;18.70;99.90;;;;;;5025040;28;20038;-65
2023/06/09 08:20:32;;;;;;;8.15;2.83;;;18.70;99.90;;;;;;5010350;28;20095;-65
2023/06/09 08:22:57;;;;;;;0.08;0.08;;;18.80;99.90;;;;;;5012230;28;20042;-65
2023/06/09 08:25:24;;;;;;;0.10;0.10;;;18.90;99.90;;;;;;5002773;28;20046;-65
2023/06/09 08:27:49;;;;;;;0.63;0.57;;;18.90;99.90;;;;;;5007687;28;20409;-65
2023/06/09 08:30:15;;;;;;;0.00;0.00;;;19.00;99.90;;;;;;5008639;28;20057;-65
2023/06/09 08:32:41;;;;;;;0.20;0.20;;;19.10;99.90;;;;;;5009079;28;20061;-65
2023/06/09 08:35:08;;;;;;;0.22;0.22;;;19.10;99.90;;;;;;5006942;28;20050;-65
2023/06/09 08:37:35;;;;;;;0.38;0.38;;;19.30;99.90;;;;;;4993392;28;20047;-65
2023/06/09 08:40:04;;;;;;;0.70;0.70;;;19.30;99.90;;;;;;4998472;28;20077;-66
2023/06/09 08:42:31;;;;;;;0.00;0.00;;;19.40;99.90;;;;;;5002691;28;20521;-66
2023/06/09 08:45:01;;;;;;;0.45;0.45;;;19.40;99.90;;;;;;4996540;28;20085;-65
2023/06/09 08:47:28;;;;;;;0.30;0.30;;;19.50;99.90;;;;;;5011666;28;20046;-65
2023/06/09 08:49:57;;;;;;;0.20;0.20;;;19.60;99.90;;;;;;4999101;28;20039;-65
2023/06/09 08:52:24;;;;;;;1.27;0.80;;;19.60;99.90;;;;;;5004072;28;20037;-65
2023/06/09 08:54:52;;;;;;;0.13;0.13;;;19.80;99.90;;;;;;5005998;28;20073;-65
2023/06/09 08:57:18;;;;;;;0.00;0.00;;;19.80;99.90;;;;;;5005676;28;20100;-65
2023/06/09 08:59:47;;;;;;;0.65;0.47;;;19.90;99.90;;;;;;5011344;28;20038;-65
2023/06/09 09:02:13;;;;;;;0.20;0.20;;;20.00;99.90;;;;;;5011401;28;20095;-65
2023/06/09 09:04:39;;;;;;;0.10;0.10;;;20.10;99.90;;;;;;5002137;28;20077;-65
2023/06/09 09:07:09;;;;;;;0.15;0.15;;;20.10;99.90;;;;;;5010983;28;20453;-65
2023/06/09 09:09:35;;;;;;;0.40;0.40;;;20.20;99.90;;;;;;5007870;28;20038;-65
2023/06/09 09:12:04;;;;;;;7.38;1.13;;;20.30;99.90;;;;;;5006958;28;20050;-65
2023/06/09 09:14:30;;;;;;;0.45;0.20;;;20.30;99.90;;;;;;5036475;28;20100;-65
2023/06/09 09:16:56;;;;;;;0.22;0.22;;;20.40;99.90;;;;;;4994312;28;20038;-65
2023/06/09 09:19:29;;;;;;;0.85;0.40;;;20.60;99.90;;;;;;5002571;28;20069;-65
2023/06/09 09:22:05;;;;;;;10.57;0.80;;;20.70;99.90;;;;;;5011141;28;20114;-65
2023/06/09 09:24:31;;;;;;;0.00;0.00;;;20.70;99.90;;;;;;5010337;28;20029;-65
2023/06/09 09:26:57;;;;;;;0.50;0.25;;;20.80;99.90;;;;;;5007906;28;20050;-65
2023/06/09 09:29:28;;;;;;;2.70;1.35;;;20.90;99.90;;;;;;4973249;28;1032364;-65
2023/06/09 09:32:02;;;;;;;0.70;0.70;;;21.00;99.90;;;;;;5007514;28;20099;-65
2023/06/09 09:34:34;;;;;;;3.13;0.40;;;21.10;99.90;;;;;;5005444;28;20478;-65
2023/06/09 09:37:01;;;;;;;0.53;0.53;;;21.10;99.90;;;;;;5011637;28;20557;-65
2023/06/09 09:39:27;;;;;;;0.20;0.20;;;21.20;99.90;;;;;;5003926;28;20046;-65
2023/06/09 09:42:03;;;;;;;0.00;0.00;;;21.30;99.90;;;;;;5010828;28;20065;-64
2023/06/09 09:44:35;;;;;;;0.28;0.28;;;21.70;99.90;;;;;;5011665;28;20060;-65
2023/06/09 09:47:04;;;;;;;0.63;0.40;;;22.10;99.90;;;;;;5001873;28;20108;-65
2023/06/09 09:49:30;;;;;;;0.00;0.00;;;22.40;99.90;;;;;;5003818;28;20053;-66
2023/06/09 09:51:58;;;;;;;0.00;0.00;;;22.80;99.90;;;;;;5010796;28;20042;-65
2023/06/09 09:54:26;;;;;;;0.40;0.40;;;23.00;99.90;;;;;;5007016;28;20042;-65
2023/06/09 09:56:57;;;;;;;1.17;1.08;;;23.20;99.90;;;;;;5003564;28;20046;-65
2023/06/09 09:59:23;;;;;;;0.13;0.13;;;23.30;99.90;;;;;;5011008;28;20073;-65
2023/06/09 10:01:51;;;;;;;1.80;1.67;;;23.60;99.90;;;;;;5011701;28;20042;-65
2023/06/09 10:04:23;;;;;;;0.25;0.25;;;23.60;99.90;;;;;;4996385;28;20042;-65
2023/06/09 10:06:58;;;;;;;1.08;0.55;;;23.80;99.90;;;;;;4999419;28;20081;-65
2023/06/09 10:09:24;;;;;;;0.00;0.00;;;23.90;99.90;;;;;;4999160;28;20441;-65
2023/06/09 10:11:54;;;;;;;2.08;1.92;;;24.00;99.90;;;;;;5003605;28;20038;-65
2023/06/09 10:14:21;;;;;;;2.50;1.20;;;24.00;99.90;;;;;;5002924;28;20398;-65
2023/06/09 10:16:47;;;;;;;0.00;0.00;;;24.10;99.90;;;;;;5010913;28;20069;-65
2023/06/09 10:19:14;;;;;;;0.22;0.22;;;24.20;99.90;;;;;;5008725;28;20054;-65
2023/06/09 10:21:41;;;;;;;1.55;0.47;;;24.40;99.90;;;;;;5008753;28;20037;-65
2023/06/09 10:24:08;;;;;;;0.03;0.03;;;24.40;99.90;;;;;;5007247;28;20053;-65
2023/06/09 10:26:36;;;;;;;1.98;1.20;;;24.50;99.90;;;;;;5002931;28;20081;-65
2023/06/09 10:29:08;;;;;;;0.20;0.20;;;24.50;99.90;;;;;;5010233;28;20054;-65
2023/06/09 10:31:37;;;;;;;11.10;1.75;;;24.70;99.90;;;;;;5002164;28;20053;-65
2023/06/09 10:34:06;;;;;;;0.17;0.17;;;24.70;99.90;;;;;;5010677;28;20042;-65
2023/06/09 10:36:38;;;;;;;0.10;0.10;;;24.80;99.90;;;;;;5042515;28;20049;-65
2023/06/09 10:39:17;;;;;;;0.57;0.45;;;24.80;99.90;;;;;;5014553;28;20366;-65
2023/06/09 10:41:51;;;;;;;0.08;0.08;;;24.90;99.90;;;;;;5010835;28;20049;-65
2023/06/09 10:44:29;;;;;;;0.00;0.00;;;24.90;99.90;;;;;;5006225;28;20046;-65
2023/06/09 10:46:55;;;;;;;1.65;1.38;;;25.00;99.90;;;;;;5014469;28;20116;-65
2023/06/09 10:49:36;;;;;;;0.00;0.00;;;25.20;99.90;;;;;;5013083;28;20124;-65
2023/06/09 10:52:03;;;;;;;0.25;0.25;;;25.30;99.90;;;;;;5011976;28;20075;-65
2023/06/09 10:54:30;;;;;;;0.32;0.32;;;25.30;99.90;;;;;;5010139;28;20096;-66
2023/06/09 10:57:00;;;;;;;0.30;0.30;;;25.40;99.90;;;;;;5025937;28;20100;-65
2023/06/09 10:59:25;;;;;;;0.00;0.00;;;25.60;99.90;;;;;;5010050;28;20042;-65
2023/06/09 11:02:03;;;;;;;0.00;0.00;;;25.70;99.90;;;;;;5006986;28;20042;-65
2023/06/09 11:04:46;;;;;;;0.22;0.22;;;25.80;99.90;;;;;;5000977;28;20042;-65
2023/06/09 11:07:20;;;;;;;0.73;0.47;;;25.90;99.90;;;;;;5044909;28;20071;-66
2023/06/09 11:09:49;;;;;;;0.52;0.52;;;25.90;99.90;;;;;;5012875;28;20038;-65
2023/06/09 11:12:27;;;;;;;8.00;1.58;;;26.10;99.90;;;;;;5009059;28;20060;-65
2023/06/09 11:14:58;;;;;;;0.10;0.10;;;26.10;99.90;;;;;;5006833;28;20121;-65
2023/06/09 11:17:33;;;;;;;2.78;1.05;;;26.20;99.90;;;;;;5008093;28;20141;-65
2023/06/09 11:20:20;;;;;;;4.45;0.80;;;26.20;99.90;;;;;;5008135;28;20121;-65
2023/06/09 11:22:48;;;;;;;0.80;0.35;;;26.20;99.90;;;;;;5001366;28;20049;-66
2023/06/09 11:25:17;;;;;;;0.00;0.00;;;26.50;99.90;;;;;;5028167;28;20450;-65
2023/06/09 11:27:44;;;;;;;1.00;0.57;;;26.60;99.90;;;;;;5002541;28;20077;-66
2023/06/09 11:30:20;;;;;;;0.30;0.20;;;26.70;99.90;;;;;;4995997;28;20066;-65
2023/06/09 11:32:57;;;;;;;0.25;0.25;;;26.60;99.90;;;;;;5001723;28;20042;-65
2023/06/09 11:35:32;;;;;;;0.00;0.00;;;26.80;99.90;;;;;;5000630;28;20402;-65
2023/06/09 11:38:05;;;;;;;0.45;0.38;;;26.80;99.90;;;;;;5005689;28;20045;-65
2023/06/09 11:40:35;;;;;;;0.15;0.15;;;26.90;99.90;;;;;;5010759;28;20498;-65
2023/06/09 11:43:02;;;;;;;0.55;0.30;;;26.90;99.90;;;;;;5007241;28;20168;-65
2023/06/09 11:45:30;;;;;;;0.00;0.00;;;27.00;99.90;;;;;;4999311;28;20124;-65
2023/06/09 11:47:59;;;;;;;0.82;0.35;;;27.20;99.90;;;;;;5033575;28;20050;-65
2023/06/09 11:50:35;;;;;;;0.65;0.25;;;27.20;99.90;;;;;;5028131;28;20038;-65
2023/06/09 11:53:08;;;;;;;0.77;0.60;;;27.30;99.90;;;;;;5012712;28;20077;-66
2023/06/09 11:55:34;;;;;;;0.03;0.03;;;27.10;99.90;;;;;;5008612;28;20058;-66
2023/06/09 11:58:01;;;;;;;0.85;0.55;;;27.50;99.90;;;;;;5011321;28;20229;-65
2023/06/09 12:00:28;;;;;;;0.03;0.03;;;27.70;99.90;;;;;;5012619;28;20041;-65
2023/06/09 12:02:55;;;;;;;1.23;1.08;;;27.70;99.90;;;;;;5007274;28;20048;-65
2023/06/09 12:05:23;;;;;;;0.00;0.00;;;27.70;99.90;;;;;;5013188;28;20056;-65
2023/06/09 12:07:50;;;;;;;0.00;0.00;;;27.60;99.90;;;;;;5012386;28;20046;-66
2023/06/09 12:10:19;;;;;;;0.93;0.77;;;27.50;99.90;;;;;;5009649;28;20057;-66
2023/06/09 12:12:46;;;;;;;0.22;0.22;;;27.60;99.90;;;;;;5000223;28;20113;-66
2023/06/09 12:15:14;;;;;;;0.50;0.50;;;27.60;99.90;;;;;;5009972;28;20092;-65
2023/06/09 12:17:40;;;;;;;0.15;0.15;;;27.70;99.90;;;;;;5012980;28;20053;-66
2023/06/09 12:20:31;;;;;;;0.20;0.20;;;27.80;99.90;;;;;;5007278;28;20218;-66
2023/06/09 12:22:57;;;;;;;1.10;1.05;;;27.90;99.90;;;;;;5007139;28;20521;-65
2023/06/09 12:25:27;;;;;;;2.13;0.57;;;27.80;99.90;;;;;;5005040;28;20050;-66
2023/06/09 12:27:54;;;;;;;0.70;0.70;;;27.90;99.90;;;;;;5010294;28;20135;-66
2023/06/09 12:30:41;;;;;;;0.00;0.00;;;28.00;99.90;;;;;;5007589;28;20064;-66
2023/06/09 12:33:12;;;;;;;0.75;0.75;;;28.20;99.90;;;;;;5012660;28;20175;-66
2023/06/09 12:35:42;;;;;;;0.10;0.10;;;28.30;99.90;;;;;;5008950;28;20046;-66
2023/06/09 12:38:20;;;;;;;0.47;0.38;;;28.10;99.90;;;;;;5009413;28;20046;-66
2023/06/09 12:40:55;;;;;;;0.15;0.15;;;28.10;99.90;;;;;;5012360;28;20096;-66
2023/06/09 12:43:23;;;;;;;0.43;0.43;;;28.30;99.90;;;;;;5011653;28;20505;-66
2023/06/09 12:45:53;;;;;;;0.35;0.30;;;28.40;99.90;;;;;;5001485;28;20636;-66
2023/06/09 12:48:19;;;;;;;2.05;0.63;;;28.40;99.90;;;;;;5021102;28;20133;-66
2023/06/09 12:50:45;;;;;;;0.28;0.28;;;28.10;99.90;;;;;;5003813;28;20124;-66
2023/06/09 12:53:12;;;;;;;1.17;1.02;;;28.00;99.90;;;;;;5010926;28;20092;-65